KFPR/FPR METAR and TAF weather

Enter ICAO airport designator
Station Type Date Time Source
KFPR METAR 2020/03/29 14:35 UTC NOAA

KFPR 291435Z 17005KT 10SM FEW028 OVC034 26/19 A3019 RMK AO2 T02610194


Station Type Date Time Source
KFPR Decoded METAR 2020/03/29 14:35 UTC NOAA

FORT PIERCE ST LUCIE, FL, United States (KFPR) 27-30N 080-23W 13M
Mar 29, 2020 - 10:35 AM EDT / 2020.03.29 1435 UTC
Wind: from the S (170 degrees) at 6 MPH (5 KT):0
Visibility: 10 mile(s):0
Sky conditions: overcast
Temperature: 79.0 F (26.1 C)
Dew Point: 66.9 F (19.4 C)
Relative Humidity: 66%
Pressure (altimeter): 30.19 in. Hg (1022 hPa)
ob: KFPR 291435Z 17005KT 10SM FEW028 OVC034 26/19 A3019 RMK AO2 T02610194
cycle: 14

Station Type Date Time Source
KFPR TAF 2020/03/29 14:21 UTC NOAA

TAF
AMD KFPR 291417Z 2914/3012 18006KT P6SM BKN035
FM291600 13014KT P6SM FEW040
FM300200 18005KT P6SM SKC

Example: see airport list